Time;durP1;ratioP1;P1;durP2;ratioP2;P2;SDS_P1;SDS_P2;PMS_P1;PMS_P2;Temp;Humidity;BMP_temperature;BMP_pressure;BME280_temperature;BME280_humidity;BME280_pressure;Samples;Min_cycle;Max_cycle;Signal;HPM_P1;HPM_P2
2023/06/20 00:00:09;;;;;;;11.88;9.95;;;512.00;2380.80;;;;;;5032089;28;20040;-61
2023/06/20 00:02:34;;;;;;;11.82;10.27;;;512.00;2380.80;;;;;;5051820;28;20092;-65
2023/06/20 00:05:00;;;;;;;13.05;10.40;;;487.30;2380.80;;;;;;5051739;28;20055;-62
2023/06/20 00:07:26;;;;;;;12.65;10.45;;;487.30;2380.80;;;;;;5050828;28;20017;-64
2023/06/20 00:09:52;;;;;;;12.73;10.38;;;487.30;2380.80;;;;;;5051836;28;20025;-61
2023/06/20 00:12:18;;;;;;;13.10;10.57;;;512.00;2380.80;;;;;;5051502;28;20503;-66
2023/06/20 00:14:43;;;;;;;13.18;9.88;;;512.00;2380.80;;;;;;5051246;28;20033;-62
2023/06/20 00:17:09;;;;;;;16.80;10.75;;;487.30;2380.80;;;;;;5051456;28;20021;-61
2023/06/20 00:19:35;;;;;;;17.92;11.07;;;487.30;2380.80;;;;;;5051424;28;20037;-61
2023/06/20 00:22:02;;;;;;;12.25;10.93;;;487.20;2380.80;;;;;;5050862;28;20470;-62
2023/06/20 00:24:31;;;;;;;12.98;10.88;;;487.10;2380.80;;;;;;5051146;28;20024;-62
2023/06/20 00:26:57;;;;;;;12.68;11.23;;;487.10;2380.80;;;;;;5051404;28;20025;-62
2023/06/20 00:29:22;;;;;;;17.15;11.13;;;487.10;2380.80;;;;;;5039899;28;20044;-65
2023/06/20 00:31:48;;;;;;;13.63;10.20;;;487.10;2380.80;;;;;;5049706;28;20032;-62
2023/06/20 00:34:15;;;;;;;13.35;10.25;;;487.10;2380.80;;;;;;5051542;28;20029;-61
2023/06/20 00:36:41;;;;;;;12.30;10.10;;;487.10;2380.80;;;;;;5050761;28;20017;-66
2023/06/20 00:39:07;;;;;;;13.30;11.02;;;487.10;2380.80;;;;;;5050894;28;20110;-62
2023/06/20 00:41:34;;;;;;;12.32;11.02;;;487.00;2380.80;;;;;;5050649;28;20467;-61
2023/06/20 00:44:03;;;;;;;12.23;10.32;;;486.90;2380.80;;;;;;5050736;28;20025;-61
2023/06/20 00:46:32;;;;;;;12.32;10.45;;;486.90;2380.80;;;;;;5050398;28;20013;-62
2023/06/20 00:49:04;;;;;;;15.20;10.43;;;486.80;2380.80;;;;;;5051089;28;20083;-67
2023/06/20 00:51:30;;;;;;;13.10;11.80;;;486.80;2380.80;;;;;;5051014;28;20017;-62
2023/06/20 00:53:58;;;;;;;12.40;11.10;;;486.80;2380.80;;;;;;5050339;28;20342;-62
2023/06/20 00:56:27;;;;;;;14.30;10.98;;;486.80;2380.80;;;;;;5051260;28;20025;-65
2023/06/20 00:58:52;;;;;;;19.67;9.95;;;486.80;2380.80;;;;;;5050675;28;20499;-68
2023/06/20 01:01:19;;;;;;;10.32;9.32;;;486.80;2380.80;;;;;;5050868;28;20060;-63
2023/06/20 01:03:48;;;;;;;10.40;9.30;;;486.80;2380.80;;;;;;5050219;28;20027;-65
2023/06/20 01:06:23;;;;;;;11.75;10.27;;;486.80;2380.80;;;;;;5040127;28;20109;-62
2023/06/20 01:08:57;;;;;;;10.98;9.57;;;486.90;2380.80;;;;;;5049185;28;20037;-61
2023/06/20 01:12:00;;;;;;;13.35;11.10;;;486.80;2380.80;;;;;;5050130;28;20029;-60
2023/06/20 01:14:50;;;;;;;12.75;10.43;;;486.80;2380.80;;;;;;5048152;28;20797;-61
2023/06/20 01:17:26;;;;;;;10.38;8.95;;;486.80;2380.80;;;;;;5047330;28;20383;-61
2023/06/20 01:19:53;;;;;;;10.07;9.07;;;486.80;2380.80;;;;;;5047772;28;20437;-62
2023/06/20 01:22:41;;;;;;;11.32;10.13;;;486.80;2380.80;;;;;;5047683;28;20116;-61
2023/06/20 01:25:19;;;;;;;13.07;9.70;;;486.80;2380.80;;;;;;5048134;28;20174;-67
2023/06/20 01:28:03;;;;;;;11.40;9.80;;;486.80;2380.80;;;;;;5047941;28;20123;-61
2023/06/20 01:30:54;;;;;;;12.07;9.48;;;486.80;2380.80;;;;;;5047661;28;20028;-61
2023/06/20 01:33:28;;;;;;;12.48;10.30;;;486.80;2380.80;;;;;;5047507;28;20075;-62
2023/06/20 01:35:55;;;;;;;14.20;9.93;;;486.80;2380.80;;;;;;5045600;28;20025;-60
2023/06/20 01:38:25;;;;;;;11.57;9.77;;;486.80;2380.80;;;;;;5027354;28;20088;-61
2023/06/20 01:40:52;;;;;;;12.07;8.90;;;486.80;2380.80;;;;;;5043442;28;20033;-61
2023/06/20 01:43:20;;;;;;;12.20;8.93;;;486.80;2380.80;;;;;;5047582;28;20489;-62
2023/06/20 01:45:47;;;;;;;10.18;9.18;;;486.80;2380.80;;;;;;5047532;28;20531;-61
2023/06/20 01:48:14;;;;;;;10.65;9.55;;;486.80;2380.80;;;;;;5047517;28;20055;-67
2023/06/20 01:50:41;;;;;;;14.65;10.05;;;486.80;2380.80;;;;;;5048897;28;20033;-60
2023/06/20 01:53:08;;;;;;;12.20;10.93;;;486.80;2380.80;;;;;;5049711;28;20017;-62
2023/06/20 01:55:36;;;;;;;10.95;9.43;;;486.70;2380.80;;;;;;5049590;28;20020;-68
2023/06/20 01:58:03;;;;;;;13.00;9.80;;;486.80;2380.80;;;;;;5049706;28;20041;-62
2023/06/20 02:00:29;;;;;;;10.65;9.55;;;486.70;2380.80;;;;;;5049189;28;20025;-62
2023/06/20 02:02:59;;;;;;;13.75;9.13;;;486.70;2380.80;;;;;;5049684;28;20057;-64
2023/06/20 02:05:31;;;;;;;12.05;10.38;;;486.60;2380.80;;;;;;5049073;28;20025;-60
2023/06/20 02:07:58;;;;;;;13.25;10.07;;;486.70;2380.80;;;;;;5049002;28;20384;-61
2023/06/20 02:10:27;;;;;;;9.50;8.50;;;486.70;2380.80;;;;;;5049661;28;20052;-61
2023/06/20 02:12:54;;;;;;;11.48;8.95;;;486.70;2380.80;;;;;;5048982;28;20029;-60
2023/06/20 02:15:23;;;;;;;11.55;10.02;;;486.70;2380.80;;;;;;5049149;28;20024;-60
2023/06/20 02:17:49;;;;;;;12.07;9.18;;;486.70;2380.80;;;;;;5049228;28;20098;-61
2023/06/20 02:20:15;;;;;;;10.15;9.13;;;486.60;2380.80;;;;;;5049688;28;20021;-67
2023/06/20 02:22:44;;;;;;;15.95;10.05;;;486.60;2380.80;;;;;;5048922;28;20459;-61
2023/06/20 02:25:16;;;;;;;9.95;8.95;;;486.50;2380.80;;;;;;5049240;28;20021;-61
2023/06/20 02:27:43;;;;;;;12.25;9.43;;;486.50;2380.80;;;;;;5048967;28;20448;-61
2023/06/20 02:30:10;;;;;;;10.75;9.40;;;486.50;2380.80;;;;;;5048975;28;20032;-61
2023/06/20 02:32:40;;;;;;;9.57;8.57;;;486.50;2380.80;;;;;;5049364;28;20116;-61
2023/06/20 02:35:09;;;;;;;13.32;9.15;;;486.40;2380.80;;;;;;5049202;28;20036;-61
2023/06/20 02:37:37;;;;;;;14.73;9.82;;;486.50;2380.80;;;;;;5048433;28;20067;-67
2023/06/20 02:40:08;;;;;;;11.63;9.55;;;486.50;2380.80;;;;;;5049587;28;20053;-60
2023/06/20 02:42:34;;;;;;;13.60;8.70;;;486.50;2380.80;;;;;;5049021;28;20024;-61
2023/06/20 02:45:01;;;;;;;11.73;9.00;;;486.50;2380.80;;;;;;5048901;28;20025;-67
2023/06/20 02:48:02;;;;;;;11.20;9.32;;;486.60;2380.80;;;;;;5049016;28;20402;-63
2023/06/20 02:50:34;;;;;;;11.18;8.38;;;486.70;2380.80;;;;;;5048189;28;20037;-64
2023/06/20 02:53:28;;;;;;;13.25;9.48;;;486.70;2380.80;;;;;;5048747;28;20017;-66
2023/06/20 02:55:59;;;;;;;9.98;8.30;;;486.70;2380.80;;;;;;5022786;28;20025;-60
2023/06/20 02:58:27;;;;;;;10.18;9.10;;;486.70;2380.80;;;;;;5048401;28;20037;-60
2023/06/20 03:00:54;;;;;;;13.70;9.88;;;486.70;2380.80;;;;;;5049202;28;20025;-60
2023/06/20 03:03:26;;;;;;;10.48;9.40;;;486.70;2380.80;;;;;;5048267;28;20053;-61
2023/06/20 03:05:59;;;;;;;10.75;9.07;;;486.70;2380.80;;;;;;5048784;28;20028;-61
2023/06/20 03:08:27;;;;;;;14.10;10.63;;;486.70;2380.80;;;;;;5048808;28;20032;-61
2023/06/20 03:10:54;;;;;;;11.18;9.68;;;486.80;2380.80;;;;;;5048675;28;20060;-66
2023/06/20 03:13:21;;;;;;;11.23;9.65;;;486.80;2380.80;;;;;;5048675;28;20041;-65
2023/06/20 03:15:49;;;;;;;14.07;11.60;;;486.80;2380.80;;;;;;5048509;28;20120;-60
2023/06/20 03:18:17;;;;;;;13.20;10.15;;;486.80;2380.80;;;;;;5048690;28;20048;-61
2023/06/20 03:20:44;;;;;;;12.68;9.32;;;486.90;2380.80;;;;;;5048942;28;20032;-62
2023/06/20 03:23:10;;;;;;;11.93;10.02;;;486.80;2380.80;;;;;;5045036;28;20021;-61
2023/06/20 03:25:35;;;;;;;11.48;10.13;;;487.00;2380.80;;;;;;5039248;28;20064;-67
2023/06/20 03:28:01;;;;;;;14.48;9.90;;;486.90;2380.80;;;;;;5048344;28;20024;-61
2023/06/20 03:30:27;;;;;;;10.52;9.32;;;487.00;2380.80;;;;;;5048672;28;20033;-61
2023/06/20 03:32:52;;;;;;;10.80;9.48;;;487.10;2380.80;;;;;;5048170;28;20024;-61
2023/06/20 03:35:18;;;;;;;13.30;10.30;;;487.10;2380.80;;;;;;5048495;28;20100;-62
2023/06/20 03:37:44;;;;;;;13.70;10.93;;;487.20;2380.80;;;;;;5047904;28;20484;-62
2023/06/20 03:40:10;;;;;;;10.52;8.90;;;487.20;2380.80;;;;;;5048456;28;20042;-65
2023/06/20 03:42:36;;;;;;;11.35;10.00;;;487.30;2380.80;;;;;;5051464;28;20110;-66
2023/06/20 03:45:02;;;;;;;12.20;10.75;;;512.00;2380.80;;;;;;5051957;28;20017;-61
2023/06/20 03:47:28;;;;;;;12.68;9.32;;;512.00;2380.80;;;;;;5052074;28;20022;-64
2023/06/20 03:49:54;;;;;;;11.80;10.40;;;512.10;2380.80;;;;;;5052445;28;20033;-60
2023/06/20 03:52:20;;;;;;;11.98;10.27;;;512.10;2380.80;;;;;;5052060;28;20017;-66
2023/06/20 03:54:45;;;;;;;19.45;10.57;;;512.20;2380.80;;;;;;5051880;28;20386;-61
2023/06/20 03:57:11;;;;;;;10.55;9.35;;;512.40;2380.80;;;;;;5051883;28;20021;-60
2023/06/20 03:59:37;;;;;;;11.18;9.80;;;512.40;2380.80;;;;;;5051909;28;20029;-62
2023/06/20 04:02:04;;;;;;;10.93;9.73;;;512.50;2380.80;;;;;;5051842;28;20044;-61
2023/06/20 04:04:29;;;;;;;12.55;10.10;;;512.50;2380.80;;;;;;5051848;28;20103;-61
2023/06/20 04:06:55;;;;;;;14.48;10.07;;;512.80;2380.80;;;;;;5051063;28;20437;-61
2023/06/20 04:09:26;;;;;;;16.52;11.13;;;512.90;2380.80;;;;;;5051585;28;20029;-65
2023/06/20 04:11:53;;;;;;;13.18;11.43;;;512.90;2380.80;;;;;;5051288;28;20029;-61
2023/06/20 04:14:19;;;;;;;10.82;9.15;;;537.70;2406.40;;;;;;5051552;28;20051;-62
2023/06/20 04:16:47;;;;;;;12.27;10.10;;;537.90;2406.40;;;;;;5051607;28;20068;-60
2023/06/20 04:19:14;;;;;;;14.95;10.00;;;537.90;2406.40;;;;;;5040227;28;20041;-61
2023/06/20 04:21:39;;;;;;;10.27;9.18;;;538.10;2406.40;;;;;;5049175;28;20028;-63
2023/06/20 04:24:06;;;;;;;12.70;9.32;;;538.20;2406.40;;;;;;5051199;28;20610;-62
2023/06/20 04:26:31;;;;;;;11.68;10.23;;;538.40;2406.40;;;;;;5051087;28;20536;-66
2023/06/20 04:28:57;;;;;;;11.73;10.10;;;538.50;2406.40;;;;;;5051727;28;20112;-61
2023/06/20 04:31:24;;;;;;;12.13;9.65;;;;;;;;;;5051561;28;20358;-61
2023/06/20 04:33:50;;;;;;;13.20;9.93;;;563.40;2432.00;;;;;;5051312;28;20505;-61
2023/06/20 04:36:16;;;;;;;12.70;11.20;;;666.10;2252.80;;;;;;5051193;28;20025;-62
2023/06/20 04:38:43;;;;;;;12.38;10.73;;;692.10;2048.00;;;;;;5050306;28;20060;-61
2023/06/20 04:41:09;;;;;;;13.02;10.20;;;742.50;1971.20;;;;;;5050893;28;20075;-62
2023/06/20 04:43:35;;;;;;;13.38;10.70;;;768.10;1843.20;;;;;;5044587;28;20032;-60
2023/06/20 04:46:02;;;;;;;12.25;11.00;;;793.60;1792.00;;;;;;5041462;28;20082;-61
2023/06/20 04:48:35;;;;;;;11.32;10.23;;;793.70;1740.80;;;;;;5031265;28;20037;-61
2023/06/20 04:51:01;;;;;;;;;;;794.50;1715.20;;;;;;5047373;28;20033;-60
2023/06/20 04:53:26;;;;;;;11.82;10.63;;;819.90;1638.40;;;;;;5050719;28;20012;-61
2023/06/20 04:55:53;;;;;;;11.68;10.52;;;820.10;1638.40;;;;;;5050821;28;20094;-65
2023/06/20 04:58:18;;;;;;;11.60;10.40;;;845.20;1638.40;;;;;;5050827;28;20033;-60
2023/06/20 05:00:44;;;;;;;11.60;10.38;;;;;;;;;;5050773;28;20116;-62
2023/06/20 05:03:10;;;;;;;12.88;11.57;;;870.70;1536.00;;;;;;5050704;28;20033;-61
2023/06/20 05:05:36;;;;;;;11.95;10.90;;;871.10;1510.40;;;;;;5050918;28;20074;-62
2023/06/20 05:08:02;;;;;;;12.32;11.00;;;896.10;1459.20;;;;;;5037461;28;20413;-61
2023/06/20 05:10:27;;;;;;;13.35;12.15;;;896.50;1459.20;;;;;;5049437;28;20021;-62
2023/06/20 05:12:53;;;;;;;61.13;14.02;;;922.10;1459.20;;;;;;5050230;28;20436;-61
2023/06/20 05:15:23;;;;;;;12.68;11.50;;;922.20;1433.60;;;;;;5050438;28;20025;-61
2023/06/20 05:17:53;;;;;;;25.05;12.55;;;948.00;1356.80;;;;;;5049975;28;20471;-61
2023/06/20 05:20:19;;;;;;;12.13;10.90;;;973.00;1382.40;;;;;;5050466;28;20037;-61
2023/06/20 05:22:45;;;;;;;11.68;10.68;;;973.20;1331.20;;;;;;5050137;28;20100;-62
2023/06/20 05:25:11;;;;;;;10.90;9.90;;;896.80;1433.60;;;;;;5036245;28;20436;-65
2023/06/20 05:27:37;;;;;;;11.35;10.27;;;845.70;1587.20;;;;;;5050175;28;20426;-61
2023/06/20 05:30:03;;;;;;;12.45;10.80;;;819.90;1612.80;;;;;;5049974;28;20060;-61
2023/06/20 05:32:29;;;;;;;12.85;11.77;;;820.10;1587.20;;;;;;5050038;28;20042;-61
2023/06/20 05:34:54;;;;;;;14.80;10.68;;;820.10;1612.80;;;;;;5049482;28;20032;-67
2023/06/20 05:37:20;;;;;;;12.68;11.38;;;845.70;1536.00;;;;;;5049129;28;20133;-61
2023/06/20 05:39:46;;;;;;;12.90;11.65;;;845.10;1612.80;;;;;;5044448;28;20049;-61
2023/06/20 05:42:12;;;;;;;15.95;11.30;;;922.10;1433.60;;;;;;5042372;28;20028;-61
2023/06/20 05:44:38;;;;;;;14.63;11.38;;;972.90;1382.40;;;;;;5050153;28;20043;-61
2023/06/20 05:47:06;;;;;;;12.85;11.65;;;998.80;1305.60;;;;;;5049579;28;20021;-61
2023/06/20 05:49:32;;;;;;;12.63;11.40;;;1024.30;1280.00;;;;;;5043963;28;20029;-61
2023/06/20 05:51:58;;;;;;;13.00;11.63;;;1024.50;1254.40;;;;;;5042744;28;20043;-61
2023/06/20 05:54:24;;;;;;;14.75;11.30;;;973.20;1356.80;;;;;;5049544;28;20057;-61
2023/06/20 05:56:51;;;;;;;12.77;11.68;;;;;;;;;;5049399;28;20025;-61
2023/06/20 05:59:17;;;;;;;13.20;12.00;;;896.40;1459.20;;;;;;5049109;28;20043;-61
2023/06/20 06:01:44;;;;;;;13.35;12.25;;;999.20;1331.20;;;;;;5049489;28;20017;-65
2023/06/20 06:04:10;;;;;;;13.98;12.85;;;1049.80;1305.60;;;;;;5035351;28;20495;-65
2023/06/20 06:06:36;;;;;;;13.57;12.38;;;1075.70;1228.80;;;;;;5023024;28;20478;-65
2023/06/20 06:09:03;;;;;;;13.02;11.77;;;1101.50;1203.20;;;;;;5049264;28;20033;-66
2023/06/20 06:11:29;;;;;;;15.27;13.95;;;1100.90;1203.20;;;;;;5020532;28;20025;-65
2023/06/20 06:13:55;;;;;;;20.42;14.70;;;1126.70;1177.60;;;;;;5029190;28;20040;-69
2023/06/20 06:16:21;;;;;;;13.60;12.40;;;1126.80;1177.60;;;;;;5039000;28;20025;-65
2023/06/20 06:18:47;;;;;;;13.27;12.18;;;1127.30;1152.00;;;;;;5049270;28;20227;-62
2023/06/20 06:21:13;;;;;;;15.02;12.27;;;1177.60;1126.40;;;;;;5049608;28;20118;-62
2023/06/20 06:23:38;;;;;;;18.13;12.23;;;1075.70;1177.60;;;;;;5049234;28;20025;-62
2023/06/20 06:26:04;;;;;;;14.80;13.63;;;1024.40;1254.40;;;;;;5049005;28;20021;-62
2023/06/20 06:28:30;;;;;;;28.58;14.60;;;1075.20;1203.20;;;;;;5048766;28;20037;-62
2023/06/20 06:31:01;;;;;;;22.45;14.20;;;1101.10;1177.60;;;;;;5049507;28;20032;-62
2023/06/20 06:33:28;;;;;;;14.65;13.25;;;1049.90;1228.80;;;;;;5049230;28;20489;-62
2023/06/20 06:35:55;;;;;;;15.27;14.00;;;1024.70;1228.80;;;;;;5049373;28;20025;-62
2023/06/20 06:38:22;;;;;;;14.90;13.48;;;1050.50;1203.20;;;;;;5048272;28;20408;-62
2023/06/20 06:40:48;;;;;;;18.75;14.05;;;1075.30;1203.20;;;;;;5049164;28;20109;-63
2023/06/20 06:43:14;;;;;;;15.70;14.30;;;1101.10;1177.60;;;;;;5049091;28;20108;-62
2023/06/20 06:45:40;;;;;;;13.85;12.52;;;1101.00;1177.60;;;;;;5048866;28;20019;-62
2023/06/20 06:48:06;;;;;;;16.17;14.50;;;1075.40;1177.60;;;;;;5048988;28;20646;-62
2023/06/20 06:50:32;;;;;;;18.13;14.38;;;1076.10;1177.60;;;;;;5048956;28;20037;-62
2023/06/20 06:52:58;;;;;;;14.45;12.23;;;1101.50;1152.00;;;;;;5048565;28;20029;-62
2023/06/20 06:55:23;;;;;;;16.60;15.07;;;1049.90;1228.80;;;;;;5048887;28;20024;-62
2023/06/20 06:57:49;;;;;;;13.32;12.20;;;1075.50;1177.60;;;;;;5048619;28;20152;-62
2023/06/20 07:00:15;;;;;;;15.88;14.40;;;1126.40;1152.00;;;;;;5049283;28;20420;-62
2023/06/20 07:02:43;;;;;;;16.42;14.85;;;1177.80;1100.80;;;;;;5048795;28;20032;-63
2023/06/20 07:05:09;;;;;;;14.10;13.00;;;1203.80;1049.60;;;;;;5048679;28;20159;-62
2023/06/20 07:07:35;;;;;;;15.45;12.40;;;1126.90;1100.80;;;;;;5048786;28;20147;-62
2023/06/20 07:10:00;;;;;;;52.28;34.90;;;1075.60;1152.00;;;;;;5048598;28;20687;-62
2023/06/20 07:12:26;;;;;;;15.98;13.68;;;1076.10;1152.00;;;;;;5048972;28;20028;-62
2023/06/20 07:14:56;;;;;;;17.58;16.00;;;1152.00;1100.80;;;;;;5049313;28;20021;-62
2023/06/20 07:17:23;;;;;;;16.67;15.07;;;1152.20;1100.80;;;;;;5052870;28;20048;-62
2023/06/20 07:19:49;;;;;;;16.60;14.85;;;1203.60;1049.60;;;;;;5049676;28;20519;-63
2023/06/20 07:22:15;;;;;;;17.45;15.77;;;1177.80;1049.60;;;;;;5042225;28;20036;-62
2023/06/20 07:24:40;;;;;;;20.23;16.75;;;1228.80;1024.00;;;;;;5052656;28;20087;-62
2023/06/20 07:27:06;;;;;;;16.05;14.35;;;1203.20;1049.60;;;;;;5052585;28;20364;-63
2023/06/20 07:29:32;;;;;;;17.17;15.57;;;1152.40;1100.80;;;;;;5039558;28;20029;-61
2023/06/20 07:31:57;;;;;;;16.67;15.02;;;1177.60;1049.60;;;;;;5053038;28;20443;-61
2023/06/20 07:34:24;;;;;;;24.50;14.82;;;1152.20;1100.80;;;;;;5038832;28;20087;-62
2023/06/20 07:36:49;;;;;;;16.48;15.02;;;1127.10;1126.40;;;;;;5052048;28;20036;-63
2023/06/20 07:39:15;;;;;;;16.30;14.77;;;1203.70;1049.60;;;;;;5052503;28;20045;-62
2023/06/20 07:41:41;;;;;;;17.20;15.70;;;1203.70;1049.60;;;;;;5052266;28;20029;-62
2023/06/20 07:44:08;;;;;;;17.05;15.55;;;1229.50;998.40;;;;;;5051718;28;20025;-61
2023/06/20 07:46:33;;;;;;;17.55;15.85;;;1228.90;1049.60;;;;;;5052405;28;20033;-63
2023/06/20 07:48:59;;;;;;;18.15;16.52;;;1229.70;1024.00;;;;;;5052367;28;20111;-62
2023/06/20 07:51:25;;;;;;;18.20;15.27;;;1254.90;998.40;;;;;;5052564;28;20029;-64
2023/06/20 07:53:50;;;;;;;18.90;17.33;;;1229.20;1049.60;;;;;;5051899;28;20029;-64
2023/06/20 07:56:16;;;;;;;18.70;17.20;;;1229.50;1049.60;;;;;;5052433;28;20378;-62
2023/06/20 07:58:44;;;;;;;18.98;17.52;;;1229.40;1024.00;;;;;;5051627;28;20364;-62
2023/06/20 08:01:12;;;;;;;19.50;17.92;;;1254.40;1024.00;;;;;;5052297;28;20036;-63
2023/06/20 08:03:38;;;;;;;18.98;17.27;;;1203.90;1024.00;;;;;;5051921;28;20498;-62
2023/06/20 08:06:04;;;;;;;20.75;18.60;;;1229.00;1049.60;;;;;;5052326;28;20029;-64
2023/06/20 08:08:29;;;;;;;20.67;18.92;;;1203.30;1075.20;;;;;;5048509;28;20033;-62
2023/06/20 08:10:55;;;;;;;24.80;19.30;;;1152.20;1126.40;;;;;;5041698;28;20036;-64
2023/06/20 08:13:21;;;;;;;19.13;16.98;;;1101.40;1152.00;;;;;;5038133;28;20089;-62
2023/06/20 08:15:47;;;;;;;18.25;16.35;;;1050.10;1254.40;;;;;;5052001;28;20020;-64
2023/06/20 08:18:12;;;;;;;17.60;16.02;;;1024.00;1305.60;;;;;;5038201;28;20065;-61
2023/06/20 08:20:38;;;;;;;17.60;15.00;;;973.40;1331.20;;;;;;5050348;28;20033;-62
2023/06/20 08:23:04;;;;;;;18.75;16.27;;;973.00;1356.80;;;;;;5051236;28;20017;-61
2023/06/20 08:25:29;;;;;;;19.50;15.60;;;973.00;1356.80;;;;;;5051352;28;20053;-61
2023/06/20 08:27:55;;;;;;;16.88;15.30;;;948.00;1356.80;;;;;;5050465;28;20378;-63
2023/06/20 08:30:21;;;;;;;17.83;15.95;;;948.10;1408.00;;;;;;5051366;28;20426;-61
2023/06/20 08:32:47;;;;;;;17.25;15.50;;;947.20;1382.40;;;;;;5048702;28;20386;-62
2023/06/20 08:35:13;;;;;;;16.80;14.93;;;947.20;1459.20;;;;;;5031501;28;20040;-62
2023/06/20 08:37:40;;;;;;;14.75;13.32;;;922.40;1408.00;;;;;;5047158;28;20498;-62
2023/06/20 08:40:12;;;;;;;14.82;13.60;;;921.60;1459.20;;;;;;5051544;28;20021;-61
2023/06/20 08:42:40;;;;;;;14.05;12.85;;;921.60;1484.80;;;;;;5050867;28;20020;-62
2023/06/20 08:45:08;;;;;;;14.85;13.55;;;921.60;1484.80;;;;;;5051401;28;20033;-62
2023/06/20 08:47:34;;;;;;;14.27;12.98;;;896.90;1484.80;;;;;;5051230;28;20017;-63
2023/06/20 08:50:00;;;;;;;14.93;13.52;;;921.80;1433.60;;;;;;5050793;28;20017;-61
2023/06/20 08:52:30;;;;;;;14.98;13.48;;;922.00;1459.20;;;;;;5050802;28;20484;-63
2023/06/20 08:54:56;;;;;;;14.13;12.82;;;922.00;1459.20;;;;;;5051144;28;20029;-62
2023/06/20 08:57:23;;;;;;;15.25;14.00;;;921.60;1459.20;;;;;;5049969;28;20062;-62
2023/06/20 08:59:48;;;;;;;15.90;14.43;;;921.60;1459.20;;;;;;5051226;28;20076;-63
2023/06/20 09:02:15;;;;;;;15.70;14.13;;;921.60;1433.60;;;;;;5050608;28;20047;-63
2023/06/20 09:04:41;;;;;;;14.85;13.35;;;921.70;1459.20;;;;;;5050938;28;20036;-62
2023/06/20 09:07:21;;;;;;;16.15;14.65;;;921.60;1459.20;;;;;;5037345;28;20766;-62
2023/06/20 09:09:48;;;;;;;15.82;14.43;;;896.90;1484.80;;;;;;5050420;28;20070;-62
2023/06/20 09:12:15;;;;;;;15.35;13.77;;;921.80;1510.40;;;;;;5050669;28;20025;-61
2023/06/20 09:14:41;;;;;;;15.50;13.95;;;922.00;1484.80;;;;;;5050684;28;20174;-61
2023/06/20 09:17:08;;;;;;;16.83;15.10;;;922.10;1459.20;;;;;;5050479;28;20099;-61
2023/06/20 09:19:43;;;;;;;15.80;14.27;;;921.90;1459.20;;;;;;5050371;28;20040;-62
2023/06/20 09:22:16;;;;;;;15.38;13.93;;;896.90;1433.60;;;;;;5050585;28;20025;-62
2023/06/20 09:24:44;;;;;;;15.05;13.75;;;896.70;1484.80;;;;;;5036883;28;20017;-63
2023/06/20 09:27:10;;;;;;;14.23;12.77;;;896.70;1510.40;;;;;;5050402;28;20037;-62
2023/06/20 09:30:00;;;;;;;16.27;14.60;;;896.10;1561.60;;;;;;5050357;28;20111;-61
2023/06/20 09:32:25;;;;;;;16.83;15.20;;;871.20;1510.40;;;;;;5050151;28;20017;-62
2023/06/20 09:34:51;;;;;;;14.90;13.60;;;896.10;1536.00;;;;;;5023970;28;20163;-62
2023/06/20 09:37:17;;;;;;;14.77;13.48;;;896.30;1510.40;;;;;;5049625;28;20486;-62
2023/06/20 09:39:43;;;;;;;16.45;15.13;;;896.40;1561.60;;;;;;5048817;28;20041;-62
2023/06/20 09:42:15;;;;;;;15.52;14.23;;;896.70;1510.40;;;;;;5050255;28;20025;-61
2023/06/20 09:44:41;;;;;;;16.30;14.65;;;871.30;1510.40;;;;;;5024849;28;20021;-61
2023/06/20 09:47:07;;;;;;;16.30;14.90;;;896.10;1510.40;;;;;;5049892;28;20028;-63
2023/06/20 09:49:39;;;;;;;16.15;14.63;;;896.20;1459.20;;;;;;5049784;28;20463;-62
2023/06/20 09:52:13;;;;;;;15.02;13.73;;;896.20;1484.80;;;;;;5049777;28;20383;-62
2023/06/20 09:55:02;;;;;;;14.48;13.20;;;871.10;1484.80;;;;;;5049952;28;20107;-61
2023/06/20 09:57:42;;;;;;;14.95;13.65;;;871.10;1536.00;;;;;;5049392;28;20032;-61
2023/06/20 10:00:12;;;;;;;16.95;14.30;;;870.80;1510.40;;;;;;5049680;28;20041;-62
2023/06/20 10:02:46;;;;;;;15.25;13.65;;;871.00;1510.40;;;;;;5049794;28;20096;-62
2023/06/20 10:05:14;;;;;;;14.57;13.10;;;871.10;1536.00;;;;;;5049494;28;20060;-61
2023/06/20 10:07:42;;;;;;;15.32;13.80;;;871.20;1536.00;;;;;;5049238;28;20028;-61
2023/06/20 10:10:10;;;;;;;14.95;13.50;;;896.10;1536.00;;;;;;5049651;28;20490;-62
2023/06/20 10:12:38;;;;;;;14.75;13.35;;;871.10;1510.40;;;;;;5049468;28;20028;-60
2023/06/20 10:15:07;;;;;;;14.63;13.18;;;871.20;1510.40;;;;;;5049542;28;20025;-62
2023/06/20 10:17:35;;;;;;;15.15;13.70;;;870.90;1510.40;;;;;;5050187;28;20036;-62
2023/06/20 10:20:06;;;;;;;14.02;12.63;;;870.90;1510.40;;;;;;5048659;28;20378;-62
2023/06/20 10:22:36;;;;;;;15.93;12.32;;;870.80;1484.80;;;;;;5049110;28;20494;-61
2023/06/20 10:25:28;;;;;;;14.80;13.27;;;845.50;1536.00;;;;;;5049133;28;20383;-62
2023/06/20 10:27:55;;;;;;;14.88;13.57;;;870.70;1510.40;;;;;;5048510;28;20143;-63
2023/06/20 10:30:55;;;;;;;15.13;13.27;;;870.70;1510.40;;;;;;5049194;28;20021;-62
2023/06/20 10:33:27;;;;;;;14.38;12.88;;;870.90;1510.40;;;;;;5023919;28;20021;-61
2023/06/20 10:36:09;;;;;;;;;;;871.10;1510.40;;;;;;5049208;28;20139;-63
2023/06/20 10:38:42;;;;;;;14.50;13.20;;;871.10;1561.60;;;;;;5048662;28;19917;-62
2023/06/20 10:41:22;;;;;;;14.50;13.10;;;870.90;1510.40;;;;;;5049282;28;20025;-63
2023/06/20 10:43:56;;;;;;;13.68;12.50;;;870.90;1536.00;;;;;;5049156;28;20025;-62
2023/06/20 10:46:37;;;;;;;14.40;12.95;;;870.60;1510.40;;;;;;5048766;28;20116;-61
2023/06/20 10:49:04;;;;;;;14.90;13.32;;;870.50;1536.00;;;;;;5048892;28;20029;-62
2023/06/20 10:51:30;;;;;;;14.68;13.18;;;870.50;1561.60;;;;;;5048862;28;20014;-62
2023/06/20 10:54:09;;;;;;;14.38;13.00;;;870.50;1587.20;;;;;;5048862;28;20025;-63
2023/06/20 10:56:35;;;;;;;13.93;12.52;;;870.50;1561.60;;;;;;5049092;28;20025;-62
2023/06/20 10:59:12;;;;;;;13.85;12.55;;;845.70;1561.60;;;;;;5043383;28;20034;-62
2023/06/20 11:01:38;;;;;;;13.18;11.98;;;845.70;1587.20;;;;;;5042698;28;20128;-61
2023/06/20 11:04:10;;;;;;;13.85;12.55;;;845.70;1536.00;;;;;;5048509;28;20086;-63
2023/06/20 11:06:35;;;;;;;13.48;12.23;;;870.50;1536.00;;;;;;5049000;28;20078;-61
2023/06/20 11:09:02;;;;;;;13.98;12.68;;;845.70;1536.00;;;;;;5048520;28;20602;-62
2023/06/20 11:11:32;;;;;;;13.48;12.07;;;845.70;1510.40;;;;;;5048532;28;20024;-62
2023/06/20 11:14:09;;;;;;;12.52;11.32;;;845.70;1561.60;;;;;;5049029;28;20029;-62
2023/06/20 11:16:35;;;;;;;12.70;11.55;;;845.70;1484.80;;;;;;5048933;28;20029;-62
2023/06/20 11:19:01;;;;;;;13.18;11.90;;;845.60;1510.40;;;;;;5048327;28;20044;-61
2023/06/20 11:21:27;;;;;;;12.88;11.60;;;845.40;1536.00;;;;;;5046036;28;20083;-62
2023/06/20 11:24:04;;;;;;;14.40;12.05;;;845.40;1561.60;;;;;;5038085;28;20040;-62
2023/06/20 11:26:34;;;;;;;13.43;12.05;;;845.40;1561.60;;;;;;5048218;28;20028;-62
2023/06/20 11:29:01;;;;;;;13.73;12.43;;;845.40;1587.20;;;;;;5048347;28;20025;-61
2023/06/20 11:31:27;;;;;;;13.75;12.45;;;845.40;1561.60;;;;;;5048655;28;20029;-63
2023/06/20 11:34:06;;;;;;;13.90;12.57;;;845.40;1612.80;;;;;;5048620;28;20036;-62
2023/06/20 11:36:33;;;;;;;15.88;12.45;;;845.40;1536.00;;;;;;5048291;28;20167;-62
2023/06/20 11:39:04;;;;;;;13.55;12.32;;;845.40;1561.60;;;;;;5047844;28;20812;-62
2023/06/20 11:41:34;;;;;;;12.50;11.30;;;845.30;1536.00;;;;;;5048667;28;20097;-62
2023/06/20 11:44:00;;;;;;;12.65;11.15;;;845.30;1510.40;;;;;;5029948;28;20026;-62
2023/06/20 11:46:26;;;;;;;14.25;12.73;;;845.30;1536.00;;;;;;5040834;28;20028;-62
2023/06/20 11:48:56;;;;;;;14.05;12.65;;;845.30;1561.60;;;;;;5048298;28;20536;-62
2023/06/20 11:51:24;;;;;;;12.65;11.43;;;845.20;1561.60;;;;;;5032019;28;20464;-60
2023/06/20 11:54:07;;;;;;;14.18;12.88;;;845.20;1587.20;;;;;;5038037;28;20033;-62
2023/06/20 11:56:32;;;;;;;;;;;845.10;1612.80;;;;;;5040257;28;20471;-60
2023/06/20 11:58:58;;;;;;;13.27;12.13;;;845.20;1587.20;;;;;;5027664;28;19916;-61
2023/06/20 12:01:25;;;;;;;12.50;11.40;;;845.20;1612.80;;;;;;5028598;28;20087;-62
2023/06/20 12:04:12;;;;;;;12.30;11.20;;;844.80;1561.60;;;;;;5031919;28;20029;-63
2023/06/20 12:06:42;;;;;;;13.27;12.07;;;845.10;1638.40;;;;;;5031722;28;20032;-60